Warm Springs Summit, Nevada Weather observations

Data are for observation ending at time listed.
 Day   Time    Ave.   Ave.  Ave.  Vector   Max.   Stn.    Total    Solar   Ave.  
  of    of     Air    Rel.  Wind   Wind    Wind   Baro.  Precip.   Rad.    Soil  
Year   Day     Temp.  Hum.  Speed  Dir.    Gust   Pres.                    Temp. 
2017   (PST)    F      %     mph   deg.    mph     mb.     in.     W/m2     F   
------------------------------------------------------------------------------
 324   14:40   51.0    24   20.8   256     24.8   773.6    0.00     142    48.5
 324   14:50   50.9    24   20.6   259     25.0   773.7    0.00     118    48.5
 324   15:00   50.7    25   20.6   263     25.9   773.7    0.00     114    48.7
 324   15:10   50.5    24   18.4   266     22.6   773.8    0.00      97    48.7
 324   15:20   50.2    22   15.2   266     21.8   774.1    0.00      82    48.7
 324   15:30   50.4    21   14.3   269     19.2   774.2    0.00     113    48.7
 324   15:40   50.5    21   14.6   267     19.3   774.3    0.00      90    48.8
 324   15:50   50.1    22   15.7   267     19.6   774.3    0.00      59    48.9
 324   16:00   49.6    21   16.2   258     20.8   774.2    0.00      32    48.9
 324   16:10   49.6    22   20.6   260     24.7   774.1    0.00      28    49.0
 324   16:20   49.4    23   23.1   264     26.1   774.0    0.00      11    49.0
 324   16:30   49.1    25   23.0   266     27.2   774.1    0.00      12    49.0
 324   16:40   49.1    28   23.4   262     28.6   774.1    0.00       1    49.0
 324   16:50   49.0    30   21.7   270     27.7   774.2    0.00       0    49.0
 324   17:00   49.0    32   22.7   272     26.4   774.3    0.00       0    49.0
 324   17:10   48.8    35   22.0   274     25.9   774.5    0.00       0    49.0
 324   17:20   48.6    36   19.5   274     24.2   774.7    0.00       0    49.0
 324   17:30   48.3    39   19.9   274     22.7   774.9    0.00       0    49.0
 324   17:40   48.3    40   20.7   270     23.5   774.8    0.00       0    49.0
 324   17:50   48.2    41   19.9   268     24.6   775.0    0.00       0    49.0
 324   18:00   48.2    42   14.8   269     20.7   775.3    0.00       0    48.9
 324   18:10   47.8    41   11.0   278     14.4   775.6    0.00       0    48.9
 324   18:20   47.8    43   11.8   268     14.7   775.5    0.00       0    48.8
 324   18:30   47.6    44   10.9   272     15.2   775.7    0.00       0    48.9
 324   18:40   47.8    44    8.2   280     11.2   775.8    0.00       0    48.9
 324   18:50   47.9    45    9.0   276     10.9   776.0    0.00       0    48.8
 324   19:00   47.5    46   11.0   280     13.9   775.9    0.00       0    48.8
 324   19:10   47.3    47   12.2   284     13.9   775.9    0.00       0    48.7
 324   19:20   47.4    48   10.9   285     12.2   776.0    0.00       0    48.7
 324   19:30   47.6    48   11.0   282     12.2   776.1    0.00       0    48.7
 324   19:40   47.7    48   10.6   286     12.2   776.1    0.00       0    48.7
 324   19:50   47.6    48   11.9   284     14.1   776.2    0.00       0    48.6
 324   20:00   47.2    49   15.7   290     18.5   776.2    0.00       0    48.6
 324   20:10   47.8    51   15.7   299     17.1   776.2    0.00       0    48.5
 324   20:20   47.9    51   14.6   298     16.3   776.3    0.00       0    48.5
 324   20:30   47.6    50   16.7   293     19.0   776.4    0.00       0    48.4
 324   20:40   47.3    49   17.0   292     18.8   776.6    0.00       0    48.4
 324   20:50   47.0    48   14.2   290     17.5   776.8    0.00       0    48.3
 324   21:00   46.7    48   13.9   291     16.7   776.8    0.00       0    48.3
 324   21:10   46.8    48   15.0   295     16.6   776.7    0.00       0    48.3
 324   21:20   46.7    49   14.5   290     17.6   776.8    0.00       0    48.2
 324   21:30   46.7    48   14.4   293     16.3   777.0    0.00       0    48.2
 324   21:40   46.5    48   13.0   290     16.0   777.0    0.00       0    48.2
 324   21:50   46.1    46   13.6   281     15.8   777.1    0.00       0    48.1
 324   22:00   45.9    43   14.2   276     17.6   777.1    0.00       0    48.1
 324   22:10   46.2    42   16.0   272     19.1   777.0    0.00       0    48.1
 324   22:20   46.5    47   16.6   272     20.4   777.1    0.00       0    48.0
 324   22:30   46.2    50   17.0   275     20.4   777.1    0.00       0    48.0
 324   22:40   46.1    54   18.4   273     21.2   777.0    0.00       0    48.0
 324   22:50   46.0    56   17.8   274     21.5   777.0    0.00       0    47.9
 324   23:00   46.1    57   19.4   271     23.7   777.0    0.00       0    47.9
 324   23:10   45.8    58   17.9   278     22.2   777.2    0.00       0    47.9
 324   23:20   46.4    59   17.8   279     22.0   777.3    0.00       0    47.8
 324   23:30   46.9    59   17.9   281     21.9   777.3    0.00       0    47.8
 324   23:40   46.6    59   19.2   281     22.4   777.3    0.00       0    47.8
 324   23:50   46.4    58   20.3   282     23.1   777.2    0.00       0    47.8
 325    0:00   46.0    59   20.4   286     23.8   777.2    0.00       0    47.7
 325    0:10   46.2    60   19.2   294     22.9   777.3    0.00       0    47.7
 325    0:20   46.7    60   18.8   300     21.8   777.4    0.00       0    47.7
 325    0:30   47.0    60   17.4   304     20.7   777.5    0.00       0    47.7
 325    0:40   47.1    60   17.0   301     19.2   777.6    0.00       0    47.7
 325    0:50   47.0    61   17.0   303     19.5   777.6    0.00       0    47.6
 325    1:00   47.7    61   14.8   306     18.6   777.5    0.00       0    47.6
 325    1:10   47.6    61   14.6   304     17.4   777.6    0.00       0    47.6
 325    1:20   47.4    61   15.4   297     17.1   777.7    0.00       0    47.5
 325    1:30   47.6    61   15.7   295     18.7   777.7    0.00       0    47.5
 325    1:40   47.3    61   14.3   293     17.3   777.7    0.00       0    47.5
 325    1:50   46.8    62   13.3   299     14.7   777.7    0.00       0    47.4
 325    2:00   47.1    62   13.4   296     14.5   777.8    0.00       0    47.4
 325    2:10   46.9    62   13.5   289     15.0   778.0    0.00       0    47.4
 325    2:20   46.3    61   13.3   287     14.7   778.1    0.00       0    47.4
 325    2:30   46.3    60   13.1   282     14.5   778.2    0.00       0    47.3
 325    2:40   46.1    61   12.2   283     13.9   778.2    0.00       0    47.3
 325    2:50   46.6    62   12.4   290     13.3   778.2    0.00       0    47.3
 325    3:00   47.0    63   12.0   296     13.8   778.2    0.00       0    47.3
 325    3:10   47.2    64   11.7   300     12.9   778.2    0.00       0    47.3
 325    3:20   47.2    64   12.3   304     14.3   778.2    0.00       0    47.2
 325    3:30   47.5    64   11.5   306     13.1   778.1    0.00       0    47.2
 325    3:40   47.2    64   11.1   306     13.4   778.3    0.00       0    47.2
 325    3:50   47.5    63    5.1   323      7.5   778.3    0.00       0    47.1
 325    4:00   47.0    64    8.1   306     11.2   778.5    0.00       0    47.1
 325    4:10   46.8    65    7.6   332     10.9   778.5    0.00       0    47.0
 325    4:20   47.0    65    8.2   340     10.7   778.5    0.00       0    47.1
 325    4:30   47.0    65    8.9   334     11.0   778.6    0.00       0    47.0
 325    4:40   47.2    65    7.6   350     10.8   778.6    0.00       0    47.0
 325    4:50   47.4    64    7.3   348     10.9   778.6    0.00       0    46.9
 325    5:00   47.6    64    7.4   345     10.6   778.6    0.00       0    46.9
 325    5:10   47.7    64    5.0   343      7.7   778.7    0.00       0    46.9
 325    5:20   47.7    63    3.9   324      6.0   778.9    0.00       0    46.9
 325    5:30   47.4    64    2.1   306      4.9   778.9    0.00       0    46.9
 325    5:40   47.8    62    2.5   338      5.0   779.0    0.00       0    46.9
 325    5:50   47.9    62    4.3   322      5.7   779.1    0.00       0    46.7
 325    6:00   47.5    62    6.1   309     10.1   779.3    0.00       0    46.8
 325    6:10   47.5    63    7.9   329     11.7   779.3    0.00       0    46.8
 325    6:20   47.8    62    9.3   337     13.3   779.4    0.00       1    46.7
 325    6:30   47.3    63    6.6   318      8.6   779.5    0.00       4    46.7
 325    6:40   47.3    63    6.3   328      9.0   779.5    0.00      14    46.7
 325    6:50   47.4    62    4.9   326      7.2   779.8    0.00      28    46.6
 325    7:00   47.3    63    7.2   308      8.7   780.0    0.00      46    46.5
 325    7:10   47.7    63    6.1   308      7.7   780.1    0.00      80    46.6
 325    7:20   48.7    60    5.4   316      8.4   780.2    0.00      97    46.5
 325    7:30   49.1    59    4.5   335      6.8   780.3    0.00     151    46.5
 325    7:40   50.6    57    2.4   356      4.3   780.5    0.00     154    46.5
 325    7:50   51.5    55    2.1   342      5.1   780.7    0.00     178    46.5
 325    8:00   50.1    58    4.1   317      6.3   780.7    0.00     202    46.5
 325    8:10   50.1    58    3.7   309      5.4   780.8    0.00     243    46.5
 325    8:20   50.8    56    4.4   336      6.6   780.9    0.00     239    46.5
 325    8:30   52.5    53    2.3     1      5.1   781.0    0.00     261    46.5
 325    8:40   53.4    52    3.0   301      5.4   781.0    0.00     302    46.5
 325    8:50   51.3    56    5.2   291      7.0   781.0    0.00     320    46.5
 325    9:00   50.8    57    5.6   289      7.6   781.0    0.00     354    46.6
 325    9:10   51.2    56    6.5   288      7.7   781.1    0.00     371    46.6
 325    9:20   51.7    54    5.6   299      7.8   781.2    0.00     364    46.7
 325    9:30   52.0    54    5.9   284      8.3   781.2    0.00     394    46.7
 325    9:40   51.2    55    7.1   263     10.3   781.3    0.00     413    46.8
 325    9:50   51.9    54    5.7   270      9.0   781.3    0.00     469    46.9
 325   10:00   53.6    50    3.0   283      5.1   781.3    0.00     501    47.0
 325   10:10   55.1    46    3.1   329      6.7   781.3    0.00     492    47.1
 325   10:20   55.6    45    3.0   328      6.2   781.3    0.00     459    47.2
 325   10:30   56.4    44    2.9   245      5.8   781.3    0.00     501    47.4
 325   10:40   57.7    41    3.0   242      6.8   781.2    0.00     543    47.6
 325   10:50   56.0    45    4.0   258      7.0   781.2    0.00     552    47.8
 325   11:00   55.4    46    5.7   271      8.8   781.1    0.00     469    47.9
 325   11:10   55.3    46    4.7   249      7.9   780.9    0.00     415    48.1
 325   11:20   56.6    43    4.7   242      9.0   780.9    0.00     500    48.3
 325   11:30   57.2    40    4.7   253      9.0   780.9    0.00     545    48.5
 325   11:40   59.1    35    5.0   176      9.4   780.8    0.00     527    48.8
 325   11:50   59.6    33    5.6   166     10.1   780.7    0.00     516    49.0
 325   12:00   59.9    33    5.7   153     10.1   780.6    0.00     541    49.2
 325   12:10   59.2    34    8.1   160     12.3   780.6    0.00     531    49.5
 325   12:20   59.1    33    8.6   155     12.6   780.5    0.00     537    49.7
 325   12:30   58.7    32    9.2   154     12.9   780.5    0.00     489    49.9
 325   12:40   57.7    34    7.0   156     13.5   780.6    0.00     390    50.1
 325   12:50   57.5    35    6.9   160     10.6   780.7    0.00     315    50.4
 325   13:00   58.0    35    6.3   156      9.9   780.7    0.00     427    50.6
 325   13:10   59.5    33    5.5   163      8.7   780.7    0.00     498    50.9
 325   13:20   59.3    33    6.5   163     11.4   780.7    0.00     381    51.1
 325   13:30   59.6    33    6.8   147     12.2   780.6    0.00     432    51.3
 325   13:40   60.6    32    5.5   180     10.5   780.6    0.00     382    51.5
 325   13:50   60.0    32    5.3   166     12.6   780.6    0.00     320    51.7
 325   14:00   58.8    34    5.5   131      9.2   780.5    0.00     332    51.9
 325   14:10   59.2    33    3.7   169      6.0   780.4    0.00     300    52.1
 325   14:20   58.2    35    2.9   152      6.2   780.4    0.00     219    52.3
 325   14:30   57.5    36    3.4    86      5.6   780.3    0.00     239    52.5

Return to Warm Springs Summit, Nevada graphs page.


Western Regional Climate Center,wrcc@dri.edu